EAX1N LELL-LEMH

Flight info

Callsign EAX1N
Flight time N/A
Altitude 11000
Route BCN DCT SARGO
Aircraft P06T/L-SBDGRY/S

Departure

Time N/A
Airport Sabadell Airfield (LELL)

Arrival

Time 2026-04-24 19:42
Airport Menorca Airport (LEMH)
Time Latitude Longitude Altitude Speed Heading
2026-04-24 18:54 40.85916 3.16811 11106 ft 140 kts 114°
2026-04-24 18:55 40.84952 3.19048 11109 ft 140 kts 114°
2026-04-24 18:55 40.84471 3.20165 11108 ft 140 kts 114°
2026-04-24 18:55 40.83992 3.21274 11107 ft 139 kts 114°
2026-04-24 18:56 40.83510 3.22396 11107 ft 139 kts 114°
2026-04-24 18:56 40.83033 3.23503 11107 ft 140 kts 114°
2026-04-24 18:56 40.82550 3.24622 11108 ft 140 kts 114°
2026-04-24 18:56 40.82072 3.25731 11108 ft 140 kts 114°
2026-04-24 18:57 40.81592 3.26843 11108 ft 140 kts 114°
2026-04-24 18:57 40.81106 3.27968 11108 ft 140 kts 114°
2026-04-24 18:57 40.80626 3.29080 11108 ft 140 kts 114°
2026-04-24 18:57 40.80146 3.30192 11106 ft 140 kts 114°
2026-04-24 18:58 40.79665 3.31306 11104 ft 140 kts 114°
2026-04-24 18:58 40.79183 3.32421 11105 ft 140 kts 114°
2026-04-24 18:58 40.78701 3.33537 11105 ft 140 kts 114°
2026-04-24 18:58 40.78218 3.34652 11106 ft 140 kts 114°
2026-04-24 18:59 40.77738 3.35763 11105 ft 140 kts 114°
2026-04-24 18:59 40.77255 3.36878 11106 ft 140 kts 114°
2026-04-24 18:59 40.76773 3.37992 11107 ft 140 kts 114°
2026-04-24 18:59 40.76288 3.39110 11105 ft 140 kts 114°
2026-04-24 19:00 40.75804 3.40228 11106 ft 140 kts 114°
2026-04-24 19:00 40.75321 3.41341 11106 ft 140 kts 114°
2026-04-24 19:00 40.74840 3.42450 11106 ft 140 kts 114°
2026-04-24 19:00 40.74359 3.43559 11105 ft 140 kts 114°
2026-04-24 19:01 40.73872 3.44681 11105 ft 140 kts 114°
2026-04-24 19:01 40.73391 3.45791 11106 ft 140 kts 114°
2026-04-24 19:01 40.72912 3.46895 11106 ft 140 kts 114°
2026-04-24 19:01 40.72425 3.48015 11105 ft 140 kts 114°
2026-04-24 19:02 40.72097 3.48769 11106 ft 140 kts 114°
2026-04-24 19:02 40.71452 3.50252 11107 ft 140 kts 114°
2026-04-24 19:02 40.70969 3.51363 11107 ft 140 kts 114°
2026-04-24 19:02 40.70488 3.52468 11108 ft 140 kts 114°
2026-04-24 19:03 40.70001 3.53588 11108 ft 140 kts 114°
2026-04-24 19:03 40.69523 3.54686 11107 ft 140 kts 114°
2026-04-24 19:03 40.69038 3.55801 11107 ft 140 kts 114°
2026-04-24 19:03 40.68550 3.56920 11106 ft 140 kts 114°
2026-04-24 19:04 40.68084 3.58044 11105 ft 140 kts 112°
2026-04-24 19:04 40.67628 3.59178 11106 ft 140 kts 112°
2026-04-24 19:04 40.67178 3.60315 11107 ft 140 kts 111°
2026-04-24 19:04 40.66732 3.61461 11107 ft 140 kts 111°
2026-04-24 19:05 40.66296 3.62598 11107 ft 140 kts 111°
2026-04-24 19:05 40.65865 3.63740 11106 ft 139 kts 110°
2026-04-24 19:05 40.65392 3.64856 11105 ft 141 kts 118°
2026-04-24 19:05 40.64843 3.65927 11106 ft 141 kts 118°
2026-04-24 19:06 40.64306 3.67009 11106 ft 141 kts 117°
2026-04-24 19:06 40.63784 3.68103 11107 ft 141 kts 116°
2026-04-24 19:06 40.63273 3.69202 11107 ft 141 kts 116°
2026-04-24 19:06 40.62762 3.70322 11107 ft 141 kts 115°
2026-04-24 19:07 40.62262 3.71430 11108 ft 141 kts 115°
2026-04-24 19:07 40.61767 3.72540 11109 ft 141 kts 115°
2026-04-24 19:07 40.61274 3.73649 11109 ft 140 kts 115°
2026-04-24 19:07 40.60782 3.74761 11109 ft 140 kts 115°
2026-04-24 19:08 40.60293 3.75868 11109 ft 140 kts 115°
2026-04-24 19:08 40.59804 3.76975 11109 ft 140 kts 115°
2026-04-24 19:08 40.59315 3.78085 11109 ft 140 kts 115°
2026-04-24 19:08 40.58826 3.79196 11108 ft 140 kts 115°
2026-04-24 19:09 40.58335 3.80311 11108 ft 140 kts 115°
2026-04-24 19:09 40.57845 3.81422 11108 ft 140 kts 115°
2026-04-24 19:09 40.57355 3.82534 11108 ft 140 kts 115°
2026-04-24 19:09 40.56865 3.83646 11109 ft 141 kts 115°
2026-04-24 19:10 40.56379 3.84752 11109 ft 141 kts 115°
2026-04-24 19:10 40.55883 3.85876 11109 ft 141 kts 115°
2026-04-24 19:10 40.55391 3.86992 11110 ft 141 kts 115°
2026-04-24 19:10 40.54900 3.88106 11110 ft 141 kts 115°
2026-04-24 19:11 40.54412 3.89222 11110 ft 141 kts 115°
2026-04-24 19:11 40.53902 3.90317 11109 ft 141 kts 116°
2026-04-24 19:11 40.53312 3.91363 11103 ft 145 kts 137°
2026-04-24 19:11 40.52354 3.91767 11105 ft 149 kts 181°
2026-04-24 19:12 40.51403 3.91297 11109 ft 148 kts 217°
2026-04-24 19:12 40.50579 3.90467 11109 ft 148 kts 221°
2026-04-24 19:12 40.49648 3.89929 11112 ft 149 kts 186°
2026-04-24 19:12 40.48615 3.89893 11112 ft 149 kts 178°
2026-04-24 19:13 40.47918 3.89907 11112 ft 150 kts 178°
2026-04-24 19:13 40.46521 3.89944 11110 ft 150 kts 177°
2026-04-24 19:13 40.45478 3.89953 11109 ft 150 kts 182°
2026-04-24 19:13 40.44436 3.89951 11111 ft 150 kts 178°
2026-04-24 19:14 40.43385 3.89983 11110 ft 150 kts 177°
2026-04-24 19:14 40.42344 3.90017 11111 ft 150 kts 177°
2026-04-24 19:14 40.41301 3.90050 11111 ft 150 kts 178°
2026-04-24 19:14 40.40257 3.90083 11111 ft 150 kts 177°
2026-04-24 19:15 40.39213 3.90115 11110 ft 150 kts 177°
2026-04-24 19:15 40.38155 3.90145 11111 ft 150 kts 177°
2026-04-24 19:15 40.37113 3.90173 11111 ft 150 kts 177°
2026-04-24 19:15 40.36068 3.90200 11111 ft 150 kts 178°
2026-04-24 19:16 40.33962 3.90263 11111 ft 151 kts 178°
2026-04-24 19:16 40.32919 3.90299 11110 ft 151 kts 178°
2026-04-24 19:16 40.31863 3.90338 11110 ft 150 kts 177°
2026-04-24 19:17 40.30819 3.90375 11111 ft 150 kts 177°
2026-04-24 19:17 40.29764 3.90412 11111 ft 150 kts 177°
2026-04-24 19:17 40.28721 3.90450 11112 ft 150 kts 177°
2026-04-24 19:17 40.27678 3.90489 11111 ft 150 kts 177°
2026-04-24 19:18 40.26631 3.90525 11111 ft 150 kts 177°
2026-04-24 19:18 40.25584 3.90561 11111 ft 150 kts 176°
2026-04-24 19:18 40.24539 3.90614 11112 ft 151 kts 176°
2026-04-24 19:18 40.23490 3.90663 11112 ft 151 kts 176°
2026-04-24 19:19 40.22436 3.90712 11111 ft 151 kts 176°
2026-04-24 19:19 40.21374 3.90763 11111 ft 151 kts 176°
2026-04-24 19:19 40.20325 3.90814 11111 ft 151 kts 176°
2026-04-24 19:19 40.19273 3.90867 11111 ft 151 kts 176°
2026-04-24 19:20 40.18225 3.90921 11112 ft 151 kts 176°
2026-04-24 19:20 40.17172 3.90978 11111 ft 151 kts 176°
2026-04-24 19:20 40.16124 3.91037 11110 ft 151 kts 176°
2026-04-24 19:20 40.15081 3.91097 11112 ft 150 kts 176°
2026-04-24 19:21 40.14022 3.91156 11113 ft 150 kts 176°
2026-04-24 19:21 40.12974 3.91216 11113 ft 151 kts 176°
2026-04-24 19:21 40.11924 3.91274 11114 ft 151 kts 176°
2026-04-24 19:21 40.10868 3.91331 11112 ft 152 kts 176°
2026-04-24 19:22 40.10160 3.91369 11111 ft 152 kts 176°
2026-04-24 19:22 40.08754 3.91441 11111 ft 151 kts 176°
2026-04-24 19:22 40.07703 3.91498 11111 ft 151 kts 174°
2026-04-24 19:22 40.06654 3.91604 11113 ft 150 kts 173°
2026-04-24 19:23 40.05616 3.91719 11114 ft 150 kts 173°
2026-04-24 19:23 40.04547 3.91844 10958 ft 153 kts 173°
2026-04-24 19:23 40.03480 3.91974 10790 ft 154 kts 173°
2026-04-24 19:23 40.02411 3.92108 10626 ft 155 kts 173°
2026-04-24 19:24 40.01341 3.92244 10455 ft 155 kts 173°
2026-04-24 19:24 40.00256 3.92381 10281 ft 156 kts 173°
2026-04-24 19:24 39.99181 3.92517 10115 ft 156 kts 173°
2026-04-24 19:24 39.98100 3.92654 9945 ft 156 kts 173°
2026-04-24 19:25 39.97006 3.92788 9777 ft 156 kts 173°
2026-04-24 19:25 39.95928 3.92918 9611 ft 155 kts 173°
2026-04-24 19:25 39.94850 3.93042 9437 ft 155 kts 173°
2026-04-24 19:25 39.93779 3.93163 9268 ft 154 kts 173°
2026-04-24 19:26 39.92718 3.93284 9097 ft 154 kts 173°
2026-04-24 19:26 39.91645 3.93403 8923 ft 153 kts 174°
2026-04-24 19:26 39.90586 3.93347 8753 ft 153 kts 189°
2026-04-24 19:26 39.89545 3.93094 8585 ft 153 kts 190°
2026-04-24 19:27 39.88487 3.92895 8413 ft 153 kts 185°
2026-04-24 19:27 39.87424 3.92786 8236 ft 153 kts 182°
2026-04-24 19:27 39.86356 3.92735 8060 ft 153 kts 180°
2026-04-24 19:27 39.85300 3.92714 7880 ft 153 kts 180°
2026-04-24 19:28 39.84233 3.92692 7699 ft 152 kts 180°
2026-04-24 19:28 39.83185 3.92822 7524 ft 151 kts 167°
2026-04-24 19:28 39.82159 3.93096 7355 ft 150 kts 165°
2026-04-24 19:28 39.81146 3.93428 7176 ft 150 kts 161°
2026-04-24 19:29 39.79210 3.94383 6831 ft 147 kts 150°
2026-04-24 19:29 39.78303 3.95005 6655 ft 147 kts 149°
2026-04-24 19:29 39.77402 3.95628 6478 ft 146 kts 149°
2026-04-24 19:30 39.76506 3.96246 6303 ft 146 kts 149°
2026-04-24 19:30 39.75612 3.96862 6134 ft 145 kts 148°
2026-04-24 19:30 39.74742 3.97510 5964 ft 144 kts 145°
2026-04-24 19:30 39.73909 3.98217 5787 ft 143 kts 140°
2026-04-24 19:31 39.73110 3.98996 5610 ft 143 kts 139°
2026-04-24 19:31 39.72332 3.99779 5440 ft 142 kts 137°
2026-04-24 19:31 39.71573 4.00617 5263 ft 142 kts 134°
2026-04-24 19:31 39.70869 4.01500 5088 ft 141 kts 131°
2026-04-24 19:32 39.70176 4.02408 4912 ft 141 kts 130°
2026-04-24 19:32 39.69534 4.03359 4735 ft 140 kts 126°
2026-04-24 19:32 39.68911 4.04331 4557 ft 139 kts 126°
2026-04-24 19:32 39.68302 4.05303 4382 ft 138 kts 123°
2026-04-24 19:33 39.67765 4.06323 4208 ft 137 kts 120°
2026-04-24 19:33 39.67282 4.07387 4032 ft 136 kts 116°
2026-04-24 19:33 39.66822 4.08451 3859 ft 135 kts 116°
2026-04-24 19:33 39.66400 4.09527 3685 ft 135 kts 113°
2026-04-24 19:34 39.65986 4.10622 3510 ft 134 kts 113°
2026-04-24 19:34 39.65593 4.11716 3337 ft 134 kts 110°
2026-04-24 19:34 39.65266 4.12855 3161 ft 133 kts 105°
2026-04-24 19:34 39.65015 4.14006 3016 ft 131 kts 103°
2026-04-24 19:35 39.64852 4.15123 2988 ft 123 kts 85°
2026-04-24 19:35 39.65225 4.16067 2991 ft 118 kts 46°
2026-04-24 19:35 39.65856 4.16739 2991 ft 117 kts 39°
2026-04-24 19:35 39.66571 4.17264 2991 ft 117 kts 26°
2026-04-24 19:36 39.67330 4.17638 2991 ft 117 kts 21°
2026-04-24 19:36 39.68120 4.17944 2845 ft 120 kts 18°
2026-04-24 19:36 39.68935 4.18199 2672 ft 121 kts 16°
2026-04-24 19:36 39.69766 4.18421 2523 ft 121 kts 14°
2026-04-24 19:37 39.70595 4.18621 2496 ft 121 kts 13°
2026-04-24 19:37 39.71421 4.18807 2465 ft 122 kts 13°
2026-04-24 19:37 39.72288 4.18995 2288 ft 126 kts 12°
2026-04-24 19:37 39.73164 4.19175 2110 ft 127 kts 12°
2026-04-24 19:38 39.74037 4.19355 1935 ft 128 kts 13°
2026-04-24 19:38 39.74917 4.19536 1759 ft 129 kts 12°
2026-04-24 19:38 39.75812 4.19720 1619 ft 127 kts 12°
2026-04-24 19:38 39.76676 4.19897 1598 ft 124 kts 12°
2026-04-24 19:39 39.77522 4.20069 1596 ft 122 kts 12°
2026-04-24 19:39 39.78288 4.20225 1591 ft 100 kts 12°
2026-04-24 19:39 39.78915 4.20349 1483 ft 87 kts 13°
2026-04-24 19:39 39.79506 4.20472 1386 ft 86 kts 13°
2026-04-24 19:40 39.80103 4.20596 1282 ft 86 kts 13°
2026-04-24 19:40 39.80687 4.20716 1174 ft 85 kts 13°
2026-04-24 19:40 39.81278 4.20838 1063 ft 86 kts 12°
2026-04-24 19:40 39.81868 4.20959 950 ft 86 kts 12°
2026-04-24 19:41 39.82460 4.21081 835 ft 86 kts 12°
2026-04-24 19:41 39.83053 4.21203 720 ft 86 kts 12°
2026-04-24 19:41 39.83645 4.21325 605 ft 86 kts 12°
2026-04-24 19:41 39.84240 4.21444 484 ft 86 kts 11°
2026-04-24 19:42 39.84834 4.21571 379 ft 85 kts 13°
2026-04-24 19:42 39.85400 4.21688 275 ft 73 kts 12°
2026-04-24 19:42 39.85775 4.21766 281 ft 41 kts
2026-04-24 19:42 39.86006 4.21814 285 ft 28 kts
2026-04-24 19:43 39.86190 4.21851 285 ft 15 kts 15°
2026-04-24 19:43 39.86214 4.21963 283 ft 13 kts 98°
2026-04-24 19:43 39.86198 4.22082 279 ft 13 kts 99°